Time;durP1;ratioP1;P1;durP2;ratioP2;P2;SDS_P1;SDS_P2;PMS_P1;PMS_P2;Temp;Humidity;BMP_temperature;BMP_pressure;BME280_temperature;BME280_humidity;BME280_pressure;Samples;Min_cycle;Max_cycle;Signal;HPM_P1;HPM_P2
2022/08/20 00:00:19;;;;;;;;;;;;;;;;;;2114618;28;20437;-44
2022/08/20 00:01:20;;;;;;;;;;;;;;;;;;2114458;28;20022;-44
2022/08/20 00:02:21;;;;;;;;;;;;;;;;;;2114802;28;19931;-44
2022/08/20 00:03:22;;;;;;;;;;;;;;;;;;2114676;28;20011;-45
2022/08/20 00:04:23;;;;;;;;;;;;;;;;;;2114541;28;19924;-44
2022/08/20 00:05:24;;;;;;;;;;;;;;;;;;2114543;28;19975;-44
2022/08/20 00:06:25;;;;;;;;;;;;;;;;;;2114827;28;19924;-44
2022/08/20 00:07:26;;;;;;;;;;;;;;;;;;2114630;28;20386;-44
2022/08/20 00:08:27;;;;;;;;;;;;;;;;;;2114588;28;19928;-44
2022/08/20 00:09:28;;;;;;;;;;;;;;;;;;2114751;28;19959;-47
2022/08/20 00:10:29;;;;;;;;;;;;;;;;;;2114530;28;20304;-44
2022/08/20 00:11:32;;;;;;;;;;;;;;;;;;2110015;28;20414;-44
2022/08/20 00:12:33;;;;;;;;;;;;;;;;;;2106223;28;20010;-44
2022/08/20 00:13:34;;;;;;;;;;;;;;;;;;2106026;28;20425;-44
2022/08/20 00:14:34;;;;;;;;;;;;;;;;;;2106213;28;19924;-44
2022/08/20 00:15:35;;;;;;;;;;;;;;;;;;2106270;28;19931;-45
2022/08/20 00:16:36;;;;;;;;;;;;;;;;;;2106128;28;20007;-44
2022/08/20 00:17:37;;;;;;;;;;;;;;;;;;2106109;28;20349;-44
2022/08/20 00:18:38;;;;;;;;;;;;;;;;;;2106380;28;19931;-44
2022/08/20 00:19:39;;;;;;;;;;;;;;;;;;2105994;28;19929;-44
2022/08/20 00:20:39;;;;;;;;;;;;;;;;;;2106271;28;19931;-44
2022/08/20 00:21:41;;;;;;;;;;;;;;;;;;2106108;28;20334;-44
2022/08/20 00:22:41;;;;;;;;;;;;;;;;;;2106079;28;19972;-44
2022/08/20 00:23:42;;;;;;;;;;;;;;;;;;2106749;28;19924;-45
2022/08/20 00:24:43;;;;;;;;;;;;;;;;;;2107685;28;19931;-44
2022/08/20 00:25:44;;;;;;;;;;;;;;;;;;2107517;28;19924;-44
2022/08/20 00:26:45;;;;;;;;;;;;;;;;;;2107519;28;20292;-45
2022/08/20 00:27:52;;;;;;;;;;;;;;;;;;2107763;28;19924;-45
2022/08/20 00:28:53;;;;;;;;;;;;;;;;;;2107551;28;19928;-45
2022/08/20 00:29:54;;;;;;;;;;;;;;;;;;2107706;28;20400;-44
2022/08/20 00:30:54;;;;;;;;;;;;;;;;;;2107500;28;20015;-45
2022/08/20 00:31:55;;;;;;;;;;;;;;;;;;2107452;28;19924;-46
2022/08/20 00:32:56;;;;;;;;;;;;;;;;;;2107616;28;20435;-44
2022/08/20 00:33:57;;;;;;;;;;;;;;;;;;2107627;28;19964;-44
2022/08/20 00:34:58;;;;;;;;;;;;;;;;;;2107427;28;19928;-45
2022/08/20 00:36:05;;;;;;;;;;;;;;;;;;2107515;28;20255;-44
2022/08/20 00:37:06;;;;;;;;;;;;;;;;;;2107496;28;20033;-44
2022/08/20 00:38:07;;;;;;;;;;;;;;;;;;2107566;28;20010;-44
2022/08/20 00:39:08;;;;;;;;;;;;;;;;;;2107704;28;19931;-44
2022/08/20 00:40:09;;;;;;;;;;;;;;;;;;2107435;28;19950;-43
2022/08/20 00:41:23;;;;;;;;;;;;;;;;;;2107536;28;19924;-45
2022/08/20 00:42:24;;;;;;;;;;;;;;;;;;2107490;28;20007;-45
2022/08/20 00:43:25;;;;;;;;;;;;;;;;;;2107408;28;20074;-44
2022/08/20 00:44:26;;;;;;;;;;;;;;;;;;2107451;28;19970;-44
2022/08/20 00:45:26;;;;;;;;;;;;;;;;;;2107365;28;20341;-45
2022/08/20 00:46:27;;;;;;;;;;;;;;;;;;2107302;28;19951;-43
2022/08/20 00:47:32;;;;;;;;;;;;;;;;;;2107454;28;19924;-45
2022/08/20 00:48:33;;;;;;;;;;;;;;;;;;2107531;28;20377;-46
2022/08/20 00:49:33;;;;;;;;;;;;;;;;;;2107547;28;19967;-44
2022/08/20 00:50:34;;;;;;;;;;;;;;;;;;2107366;28;20392;-45
2022/08/20 00:51:36;;;;;;;;;;;;;;;;;;2107460;28;19924;-44
2022/08/20 00:52:38;;;;;;;;;;;;;;;;;;2107287;28;20314;-46
2022/08/20 00:53:39;;;;;;;;;;;;;;;;;;2108555;28;19959;-44
2022/08/20 00:54:40;;;;;;;;;;;;;;;;;;2115851;28;20040;-45
2022/08/20 00:55:41;;;;;;;;;;;;;;;;;;2115654;28;19971;-44
2022/08/20 00:56:42;;;;;;;;;;;;;;;;;;2115952;28;20018;-44
2022/08/20 00:57:43;;;;;;;;;;;;;;;;;;2115830;28;20169;-44
2022/08/20 00:58:59;;;;;;;;;;;;;;;;;;2115927;28;20012;-44
2022/08/20 01:00:02;;;;;;;;;;;;;;;;;;2115782;28;19982;-44
2022/08/20 01:01:04;;;;;;;;;;;;;;;;;;2115826;28;19943;-44
2022/08/20 01:02:04;;;;;;;;;;;;;;;;;;2115625;28;19939;-44
2022/08/20 01:03:07;;;;;;;;;;;;;;;;;;2115952;28;20395;-44
2022/08/20 01:04:09;;;;;;;;;;;;;;;;;;2115699;28;19935;-44
2022/08/20 01:05:10;;;;;;;;;;;;;;;;;;2115902;28;20002;-45
2022/08/20 01:06:11;;;;;;;;;;;;;;;;;;2115601;28;20412;-44
2022/08/20 01:07:12;;;;;;;;;;;;;;;;;;2115801;28;19955;-47
2022/08/20 01:08:13;;;;;;;;;;;;;;;;;;2115621;28;20475;-44
2022/08/20 01:09:14;;;;;;;;;;;;;;;;;;2115698;28;19928;-45
2022/08/20 01:10:15;;;;;;;;;;;;;;;;;;2115716;28;19931;-45
2022/08/20 01:11:19;;;;;;;;;;;;;;;;;;2112884;28;19930;-44
2022/08/20 01:12:22;;;;;;;;;;;;;;;;;;2107313;28;20468;-44
2022/08/20 01:13:23;;;;;;;;;;;;;;;;;;2107260;28;20007;-46
2022/08/20 01:14:27;;;;;;;;;;;;;;;;;;2107190;28;20019;-46
2022/08/20 01:15:29;;;;;;;;;;;;;;;;;;2107519;28;20034;-46
2022/08/20 01:16:31;;;;;;;;;;;;;;;;;;2107330;28;19970;-46
2022/08/20 01:17:32;;;;;;;;;;;;;;;;;;2107142;28;20383;-46
2022/08/20 01:18:33;;;;;;;;;;;;;;;;;;2107395;28;20252;-46
2022/08/20 01:19:34;;;;;;;;;;;;;;;;;;2107256;28;19986;-46
2022/08/20 01:20:35;;;;;;;;;;;;;;;;;;2107123;28;19924;-46
2022/08/20 01:21:36;;;;;;;;;;;;;;;;;;2107161;28;19924;-46
2022/08/20 01:23:55;;;;;;;;;;;;;;;;;;2073030;28;20012;-46
2022/08/20 01:24:56;;;;;;;;;;;;;;;;;;2100516;28;19971;-46
2022/08/20 01:25:59;;;;;;;;;;;;;;;;;;2107106;28;19951;-46
2022/08/20 01:27:00;;;;;;;;;;;;;;;;;;2107084;28;19928;-45
2022/08/20 01:28:00;;;;;;;;;;;;;;;;;;2107304;28;20269;-46
2022/08/20 01:29:02;;;;;;;;;;;;;;;;;;2107129;28;19930;-46
2022/08/20 01:30:02;;;;;;;;;;;;;;;;;;2107190;28;20283;-46
2022/08/20 01:31:06;;;;;;;;;;;;;;;;;;2107288;28;19965;-46
2022/08/20 01:32:07;;;;;;;;;;;;;;;;;;2107178;28;20007;-45
2022/08/20 01:33:08;;;;;;;;;;;;;;;;;;2107268;28;19931;-45
2022/08/20 01:34:09;;;;;;;;;;;;;;;;;;2107118;28;20003;-46
2022/08/20 01:35:10;;;;;;;;;;;;;;;;;;2107079;28;19956;-46
2022/08/20 01:36:10;;;;;;;;;;;;;;;;;;2107172;28;20423;-46
2022/08/20 01:37:11;;;;;;;;;;;;;;;;;;2107263;28;19947;-47
2022/08/20 01:38:12;;;;;;;;;;;;;;;;;;2107230;28;19924;-45
2022/08/20 01:39:13;;;;;;;;;;;;;;;;;;2107171;28;19924;-45
2022/08/20 01:40:14;;;;;;;;;;;;;;;;;;2107131;28;20003;-45
2022/08/20 01:41:15;;;;;;;;;;;;;;;;;;2107399;28;19992;-45
2022/08/20 01:42:16;;;;;;;;;;;;;;;;;;2106986;28;19924;-46
2022/08/20 01:43:17;;;;;;;;;;;;;;;;;;2107020;28;20141;-46
2022/08/20 01:44:18;;;;;;;;;;;;;;;;;;2107062;28;19934;-45
2022/08/20 01:45:18;;;;;;;;;;;;;;;;;;2106978;28;19931;-46
2022/08/20 01:46:19;;;;;;;;;;;;;;;;;;2107138;28;19924;-45
2022/08/20 01:47:20;;;;;;;;;;;;;;;;;;2107091;28;19924;-45
2022/08/20 01:48:21;;;;;;;;;;;;;;;;;;2106995;28;19975;-47
2022/08/20 01:49:22;;;;;;;;;;;;;;;;;;2107009;28;20365;-46
2022/08/20 01:50:23;;;;;;;;;;;;;;;;;;2112527;28;19924;-47
2022/08/20 01:51:24;;;;;;;;;;;;;;;;;;2115242;28;19924;-45
2022/08/20 01:52:25;;;;;;;;;;;;;;;;;;2115438;28;19975;-46
2022/08/20 01:53:26;;;;;;;;;;;;;;;;;;2115572;28;19959;-46
2022/08/20 01:54:27;;;;;;;;;;;;;;;;;;2115349;28;19950;-45
2022/08/20 01:55:28;;;;;;;;;;;;;;;;;;2115760;28;19946;-45
2022/08/20 01:56:29;;;;;;;;;;;;;;;;;;2115360;28;19924;-47
2022/08/20 01:57:29;;;;;;;;;;;;;;;;;;2115502;28;20023;-46
2022/08/20 01:58:30;;;;;;;;;;;;;;;;;;2115318;28;19975;-46
2022/08/20 01:59:31;;;;;;;;;;;;;;;;;;2115409;28;20447;-45
2022/08/20 02:00:34;;;;;;;;;;;;;;;;;;2115381;28;20018;-46
2022/08/20 02:01:35;;;;;;;;;;;;;;;;;;2115439;28;20363;-47
2022/08/20 02:02:46;;;;;;;;;;;;;;;;;;2115484;28;19931;-46
2022/08/20 02:03:47;;;;;;;;;;;;;;;;;;2115343;28;19971;-48
2022/08/20 02:04:48;;;;;;;;;;;;;;;;;;2115329;28;19930;-45
2022/08/20 02:05:49;;;;;;;;;;;;;;;;;;2115386;28;19924;-46
2022/08/20 02:06:50;;;;;;;;;;;;;;;;;;2115398;28;19930;-46
2022/08/20 02:07:57;;;;;;;;;;;;;;;;;;2115299;28;19935;-45
2022/08/20 02:08:58;;;;;;;;;;;;;;;;;;2115405;28;20018;-45
2022/08/20 02:09:59;;;;;;;;;;;;;;;;;;2115371;28;19928;-46
2022/08/20 02:11:00;;;;;;;;;;;;;;;;;;2114907;28;19993;-45
2022/08/20 02:12:01;;;;;;;;;;;;;;;;;;2106754;28;19932;-46
2022/08/20 02:13:04;;;;;;;;;;;;;;;;;;2107021;28;19928;-45
2022/08/20 02:14:05;;;;;;;;;;;;;;;;;;2106895;28;19955;-45
2022/08/20 02:15:07;;;;;;;;;;;;;;;;;;2106933;28;19931;-45
2022/08/20 02:16:07;;;;;;;;;;;;;;;;;;2106683;28;20019;-46
2022/08/20 02:17:08;;;;;;;;;;;;;;;;;;2107011;28;20003;-45
2022/08/20 02:18:09;;;;;;;;;;;;;;;;;;2106904;28;20014;-46
2022/08/20 02:19:11;;;;;;;;;;;;;;;;;;2106806;28;19924;-45
2022/08/20 02:20:11;;;;;;;;;;;;;;;;;;2106795;28;20497;-46
2022/08/20 02:21:12;;;;;;;;;;;;;;;;;;2106704;28;20125;-45
2022/08/20 02:22:14;;;;;;;;;;;;;;;;;;2106838;28;19928;-47
2022/08/20 02:23:15;;;;;;;;;;;;;;;;;;2106753;28;19924;-46
2022/08/20 02:24:16;;;;;;;;;;;;;;;;;;2106852;28;19959;-46
2022/08/20 02:25:17;;;;;;;;;;;;;;;;;;2106740;28;19990;-46
2022/08/20 02:26:18;;;;;;;;;;;;;;;;;;2106771;28;19928;-46
2022/08/20 02:27:22;;;;;;;;;;;;;;;;;;2106862;28;19928;-45
2022/08/20 02:28:23;;;;;;;;;;;;;;;;;;2106752;28;20476;-45
2022/08/20 02:29:25;;;;;;;;;;;;;;;;;;2106901;28;19955;-45
2022/08/20 02:30:26;;;;;;;;;;;;;;;;;;2106781;28;19924;-46
2022/08/20 02:31:28;;;;;;;;;;;;;;;;;;2106668;28;20266;-45
2022/08/20 02:32:34;;;;;;;;;;;;;;;;;;2106804;28;20002;-47
2022/08/20 02:33:35;;;;;;;;;;;;;;;;;;2106761;28;19931;-45
2022/08/20 02:34:36;;;;;;;;;;;;;;;;;;2106714;28;20022;-46
2022/08/20 02:35:37;;;;;;;;;;;;;;;;;;2106854;28;19928;-46
2022/08/20 02:36:38;;;;;;;;;;;;;;;;;;2106717;28;19990;-47
2022/08/20 02:37:39;;;;;;;;;;;;;;;;;;2106597;28;20019;-45
2022/08/20 02:38:40;;;;;;;;;;;;;;;;;;2106640;28;19928;-46
2022/08/20 02:39:41;;;;;;;;;;;;;;;;;;2106530;28;19924;-46
2022/08/20 02:40:43;;;;;;;;;;;;;;;;;;2106717;28;19924;-46
2022/08/20 02:41:44;;;;;;;;;;;;;;;;;;2106407;28;19924;-46
2022/08/20 02:42:44;;;;;;;;;;;;;;;;;;2106585;28;19989;-47
2022/08/20 02:43:45;;;;;;;;;;;;;;;;;;2106472;28;20434;-46
2022/08/20 02:44:46;;;;;;;;;;;;;;;;;;2106783;28;19931;-45
2022/08/20 02:45:47;;;;;;;;;;;;;;;;;;2106348;28;19935;-46
2022/08/20 02:46:48;;;;;;;;;;;;;;;;;;2112443;28;20419;-45
2022/08/20 02:47:51;;;;;;;;;;;;;;;;;;2114686;28;19928;-46
2022/08/20 02:48:52;;;;;;;;;;;;;;;;;;2114934;28;19928;-47
2022/08/20 02:49:53;;;;;;;;;;;;;;;;;;2114814;28;19928;-46
2022/08/20 02:50:54;;;;;;;;;;;;;;;;;;2114880;28;19923;-45
2022/08/20 02:51:54;;;;;;;;;;;;;;;;;;2114836;28;19970;-46
2022/08/20 02:52:55;;;;;;;;;;;;;;;;;;2115054;28;19977;-47
2022/08/20 02:53:56;;;;;;;;;;;;;;;;;;2115087;28;19928;-45
2022/08/20 02:54:57;;;;;;;;;;;;;;;;;;2114772;28;19967;-45
2022/08/20 02:55:59;;;;;;;;;;;;;;;;;;2114769;28;19965;-46
2022/08/20 02:57:01;;;;;;;;;;;;;;;;;;2114996;28;20298;-47
2022/08/20 02:58:01;;;;;;;;;;;;;;;;;;2114740;28;20420;-45
2022/08/20 02:59:02;;;;;;;;;;;;;;;;;;2114830;28;19970;-47
2022/08/20 03:00:03;;;;;;;;;;;;;;;;;;2115216;28;19983;-47
2022/08/20 03:01:05;;;;;;;;;;;;;;;;;;2114997;28;19978;-45
2022/08/20 03:02:05;;;;;;;;;;;;;;;;;;2114875;28;19968;-45
2022/08/20 03:03:07;;;;;;;;;;;;;;;;;;2114851;28;19924;-46
2022/08/20 03:04:07;;;;;;;;;;;;;;;;;;2114690;28;20015;-45
2022/08/20 03:05:08;;;;;;;;;;;;;;;;;;2114870;28;20279;-46
2022/08/20 03:06:09;;;;;;;;;;;;;;;;;;2114644;28;19930;-45
2022/08/20 03:07:10;;;;;;;;;;;;;;;;;;2114937;28;20406;-45
2022/08/20 03:08:11;;;;;;;;;;;;;;;;;;2114749;28;20395;-46
2022/08/20 03:09:13;;;;;;;;;;;;;;;;;;2115130;28;19968;-47
2022/08/20 03:10:14;;;;;;;;;;;;;;;;;;2114655;28;19972;-46
2022/08/20 03:11:15;;;;;;;;;;;;;;;;;;2112651;28;19923;-45
2022/08/20 03:12:15;;;;;;;;;;;;;;;;;;2106805;28;20327;-46
2022/08/20 03:13:16;;;;;;;;;;;;;;;;;;2106331;28;19989;-45
2022/08/20 03:14:17;;;;;;;;;;;;;;;;;;2106317;28;19990;-46
2022/08/20 03:15:18;;;;;;;;;;;;;;;;;;2106277;28;19963;-46
2022/08/20 03:16:19;;;;;;;;;;;;;;;;;;2106206;28;19924;-45
2022/08/20 03:17:20;;;;;;;;;;;;;;;;;;2106287;28;19963;-46
2022/08/20 03:18:20;;;;;;;;;;;;;;;;;;2106563;28;20393;-45
2022/08/20 03:19:22;;;;;;;;;;;;;;;;;;2106252;28;19974;-46
2022/08/20 03:20:22;;;;;;;;;;;;;;;;;;2106364;28;20094;-46
2022/08/20 03:21:25;;;;;;;;;;;;;;;;;;2106330;28;19924;-45
2022/08/20 03:22:26;;;;;;;;;;;;;;;;;;2106328;28;20015;-45
2022/08/20 03:23:27;;;;;;;;;;;;;;;;;;2106417;28;19924;-45
2022/08/20 03:24:27;;;;;;;;;;;;;;;;;;2106233;28;19986;-46
2022/08/20 03:25:28;;;;;;;;;;;;;;;;;;2106507;28;20007;-47
2022/08/20 03:26:29;;;;;;;;;;;;;;;;;;2106011;28;20011;-48
2022/08/20 03:27:30;;;;;;;;;;;;;;;;;;2106256;28;20001;-49
2022/08/20 03:28:32;;;;;;;;;;;;;;;;;;2106065;28;20361;-45
2022/08/20 03:29:33;;;;;;;;;;;;;;;;;;2106337;28;19924;-46
2022/08/20 03:30:34;;;;;;;;;;;;;;;;;;2106291;28;20002;-45
2022/08/20 03:31:35;;;;;;;;;;;;;;;;;;2106270;28;19924;-46
2022/08/20 03:32:36;;;;;;;;;;;;;;;;;;2106218;28;19960;-45
2022/08/20 03:33:38;;;;;;;;;;;;;;;;;;2106141;28;20018;-46
2022/08/20 03:34:38;;;;;;;;;;;;;;;;;;2106277;28;20065;-45
2022/08/20 03:35:39;;;;;;;;;;;;;;;;;;2106178;28;19927;-45
2022/08/20 03:36:41;;;;;;;;;;;;;;;;;;2106130;28;20330;-45
2022/08/20 03:37:42;;;;;;;;;;;;;;;;;;2106124;28;20270;-46
2022/08/20 03:38:46;;;;;;;;;;;;;;;;;;2106283;28;19974;-45
2022/08/20 03:39:46;;;;;;;;;;;;;;;;;;2106222;28;20016;-45
2022/08/20 03:40:48;;;;;;;;;;;;;;;;;;2106089;28;20415;-45
2022/08/20 03:41:48;;;;;;;;;;;;;;;;;;2106110;28;20020;-45
2022/08/20 03:42:51;;;;;;;;;;;;;;;;;;2111055;28;19930;-45
2022/08/20 03:43:52;;;;;;;;;;;;;;;;;;2114391;28;20479;-45
2022/08/20 03:44:53;;;;;;;;;;;;;;;;;;2114682;28;19950;-45
2022/08/20 03:45:59;;;;;;;;;;;;;;;;;;2114634;28;19990;-47
2022/08/20 03:47:00;;;;;;;;;;;;;;;;;;2114325;28;19930;-45
2022/08/20 03:48:00;;;;;;;;;;;;;;;;;;2114547;28;20443;-45
2022/08/20 03:49:02;;;;;;;;;;;;;;;;;;2114944;28;19969;-45
2022/08/20 03:50:02;;;;;;;;;;;;;;;;;;2114451;28;20297;-44
2022/08/20 03:51:03;;;;;;;;;;;;;;;;;;2114645;28;19959;-45
2022/08/20 03:52:05;;;;;;;;;;;;;;;;;;2114572;28;20015;-45
2022/08/20 03:53:06;;;;;;;;;;;;;;;;;;2114335;28;19979;-45
2022/08/20 03:54:07;;;;;;;;;;;;;;;;;;2114652;28;20018;-46
2022/08/20 03:55:08;;;;;;;;;;;;;;;;;;2114634;28;20042;-46
2022/08/20 03:56:08;;;;;;;;;;;;;;;;;;2114571;28;20371;-45
2022/08/20 03:57:09;;;;;;;;;;;;;;;;;;2114456;28;19931;-45
2022/08/20 03:58:13;;;;;;;;;;;;;;;;;;2113433;28;20053;-45
2022/08/20 03:59:14;;;;;;;;;;;;;;;;;;2114328;28;19997;-45
2022/08/20 04:00:14;;;;;;;;;;;;;;;;;;2114451;28;20406;-46
2022/08/20 04:01:15;;;;;;;;;;;;;;;;;;2114537;28;19985;-45
2022/08/20 04:02:36;;;;;;;;;;;;;;;;;;2114509;28;19976;-45
2022/08/20 04:03:37;;;;;;;;;;;;;;;;;;2114591;28;20004;-47
2022/08/20 04:04:39;;;;;;;;;;;;;;;;;;2114337;28;20084;-45
2022/08/20 04:05:40;;;;;;;;;;;;;;;;;;2114394;28;20400;-45
2022/08/20 04:06:40;;;;;;;;;;;;;;;;;;2114331;28;20013;-46
2022/08/20 04:07:41;;;;;;;;;;;;;;;;;;2114657;28;19940;-45
2022/08/20 04:08:42;;;;;;;;;;;;;;;;;;2114380;28;20006;-45
2022/08/20 04:09:43;;;;;;;;;;;;;;;;;;2114714;28;19975;-46
2022/08/20 04:10:45;;;;;;;;;;;;;;;;;;2114597;28;19924;-46
2022/08/20 04:11:46;;;;;;;;;;;;;;;;;;2107766;28;20015;-45
2022/08/20 04:12:47;;;;;;;;;;;;;;;;;;2105954;28;20010;-46
2022/08/20 04:13:49;;;;;;;;;;;;;;;;;;2105893;28;19924;-47
2022/08/20 04:14:50;;;;;;;;;;;;;;;;;;2105986;28;19970;-46
2022/08/20 04:15:54;;;;;;;;;;;;;;;;;;2105979;28;19925;-45
2022/08/20 04:16:54;;;;;;;;;;;;;;;;;;2105984;28;20019;-45
2022/08/20 04:17:55;;;;;;;;;;;;;;;;;;2105925;28;19924;-45
2022/08/20 04:18:57;;;;;;;;;;;;;;;;;;2106494;28;20266;-45
2022/08/20 04:20:02;;;;;;;;;;;;;;;;;;2105916;28;19974;-45
2022/08/20 04:21:02;;;;;;;;;;;;;;;;;;2105907;28;20019;-45
2022/08/20 04:22:03;;;;;;;;;;;;;;;;;;2105820;28;19924;-48
2022/08/20 04:23:04;;;;;;;;;;;;;;;;;;2105915;28;19980;-46
2022/08/20 04:24:05;;;;;;;;;;;;;;;;;;2106121;28;20019;-47
2022/08/20 04:25:07;;;;;;;;;;;;;;;;;;2105913;28;19928;-45
2022/08/20 04:26:08;;;;;;;;;;;;;;;;;;2105828;28;20011;-47
2022/08/20 04:27:09;;;;;;;;;;;;;;;;;;2106335;28;19991;-45
2022/08/20 04:28:10;;;;;;;;;;;;;;;;;;2106185;28;19924;-46
2022/08/20 04:29:11;;;;;;;;;;;;;;;;;;2106048;28;20063;-46
2022/08/20 04:30:13;;;;;;;;;;;;;;;;;;2106110;28;19924;-45
2022/08/20 04:31:13;;;;;;;;;;;;;;;;;;2105785;28;20367;-45
2022/08/20 04:32:14;;;;;;;;;;;;;;;;;;2105831;28;19924;-47
2022/08/20 04:33:15;;;;;;;;;;;;;;;;;;2105979;28;20401;-45
2022/08/20 04:34:17;;;;;;;;;;;;;;;;;;2105861;28;20023;-46
2022/08/20 04:35:18;;;;;;;;;;;;;;;;;;2105860;28;20334;-46
2022/08/20 04:36:19;;;;;;;;;;;;;;;;;;2105747;28;19925;-47
2022/08/20 04:37:20;;;;;;;;;;;;;;;;;;2105817;28;20022;-48
2022/08/20 04:38:21;;;;;;;;;;;;;;;;;;2105831;28;19962;-45
2022/08/20 04:39:22;;;;;;;;;;;;;;;;;;2113214;28;19928;-45
2022/08/20 04:41:42;;;;;;;;;;;;;;;;;;2114288;28;20448;-45
2022/08/20 04:42:43;;;;;;;;;;;;;;;;;;2114321;28;19923;-46
2022/08/20 04:43:44;;;;;;;;;;;;;;;;;;2114266;28;20014;-44
2022/08/20 04:44:45;;;;;;;;;;;;;;;;;;2114250;28;19923;-45
2022/08/20 04:45:46;;;;;;;;;;;;;;;;;;2114372;28;19931;-48
2022/08/20 04:46:47;;;;;;;;;;;;;;;;;;2114130;28;19931;-47
2022/08/20 04:47:48;;;;;;;;;;;;;;;;;;2114304;28;19953;-46
2022/08/20 04:48:49;;;;;;;;;;;;;;;;;;2114225;28;19924;-46
2022/08/20 04:49:50;;;;;;;;;;;;;;;;;;2114364;28;19993;-46
2022/08/20 04:50:52;;;;;;;;;;;;;;;;;;2114148;28;19927;-47
2022/08/20 04:51:53;;;;;;;;;;;;;;;;;;2114136;28;19923;-46
2022/08/20 04:52:54;;;;;;;;;;;;;;;;;;2114335;28;20012;-48
2022/08/20 04:53:56;;;;;;;;;;;;;;;;;;2114168;28;20011;-48
2022/08/20 04:54:56;;;;;;;;;;;;;;;;;;2114410;28;20317;-46
2022/08/20 04:55:57;;;;;;;;;;;;;;;;;;2114255;28;19935;-46
2022/08/20 04:57:00;;;;;;;;;;;;;;;;;;2114207;28;20061;-45
2022/08/20 04:58:01;;;;;;;;;;;;;;;;;;2114306;28;19927;-45
2022/08/20 04:59:02;;;;;;;;;;;;;;;;;;2114361;28;20371;-47
2022/08/20 05:00:03;;;;;;;;;;;;;;;;;;2114215;28;19923;-47
2022/08/20 05:01:04;;;;;;;;;;;;;;;;;;2114379;28;19924;-46
2022/08/20 05:02:04;;;;;;;;;;;;;;;;;;2114226;28;19938;-46
2022/08/20 05:03:06;;;;;;;;;;;;;;;;;;2114040;28;20280;-46
2022/08/20 05:04:06;;;;;;;;;;;;;;;;;;2114307;28;20006;-46
2022/08/20 05:05:07;;;;;;;;;;;;;;;;;;2114087;28;20375;-46
2022/08/20 05:06:08;;;;;;;;;;;;;;;;;;2114004;28;19927;-46
2022/08/20 05:07:09;;;;;;;;;;;;;;;;;;2114434;28;19930;-46
2022/08/20 05:08:11;;;;;;;;;;;;;;;;;;2114082;28;19924;-46
2022/08/20 05:09:12;;;;;;;;;;;;;;;;;;2114110;28;19930;-47
2022/08/20 05:10:12;;;;;;;;;;;;;;;;;;2115362;28;19931;-47
2022/08/20 05:11:13;;;;;;;;;;;;;;;;;;2113333;28;19965;-48
2022/08/20 05:12:33;;;;;;;;;;;;;;;;;;2107355;28;20144;-46
2022/08/20 05:13:34;;;;;;;;;;;;;;;;;;2107382;28;19935;-46
2022/08/20 05:14:35;;;;;;;;;;;;;;;;;;2107012;28;20362;-46
2022/08/20 05:15:37;;;;;;;;;;;;;;;;;;2107073;28;19924;-49
2022/08/20 05:16:38;;;;;;;;;;;;;;;;;;2107023;28;19928;-48
2022/08/20 05:17:39;;;;;;;;;;;;;;;;;;2107201;28;19931;-46
2022/08/20 05:18:39;;;;;;;;;;;;;;;;;;2107229;28;20388;-46
2022/08/20 05:19:41;;;;;;;;;;;;;;;;;;2107044;28;19931;-46
2022/08/20 05:20:42;;;;;;;;;;;;;;;;;;2107079;28;19924;-47
2022/08/20 05:21:43;;;;;;;;;;;;;;;;;;2107080;28;20022;-46
2022/08/20 05:22:43;;;;;;;;;;;;;;;;;;2107275;28;19924;-47
2022/08/20 05:23:44;;;;;;;;;;;;;;;;;;2107207;28;19970;-46
2022/08/20 05:24:45;;;;;;;;;;;;;;;;;;2106990;28;19931;-46
2022/08/20 05:25:47;;;;;;;;;;;;;;;;;;2106925;28;19967;-47
2022/08/20 05:26:47;;;;;;;;;;;;;;;;;;2107136;28;19928;-47
2022/08/20 05:27:48;;;;;;;;;;;;;;;;;;2107074;28;19977;-47
2022/08/20 05:28:51;;;;;;;;;;;;;;;;;;2106963;28;19931;-47
2022/08/20 05:29:59;;;;;;;;;;;;;;;;;;2107084;28;19931;-46
2022/08/20 05:31:00;;;;;;;;;;;;;;;;;;2107160;28;20244;-46
2022/08/20 05:32:01;;;;;;;;;;;;;;;;;;2107284;28;19924;-46
2022/08/20 05:33:02;;;;;;;;;;;;;;;;;;2107128;28;19925;-47
2022/08/20 05:34:08;;;;;;;;;;;;;;;;;;2107068;28;19973;-46
2022/08/20 05:35:09;;;;;;;;;;;;;;;;;;2110353;28;20011;-45
2022/08/20 05:36:10;;;;;;;;;;;;;;;;;;2115625;28;20068;-49
2022/08/20 05:37:11;;;;;;;;;;;;;;;;;;2115335;28;20002;-47
2022/08/20 05:38:12;;;;;;;;;;;;;;;;;;2115405;28;20089;-47
2022/08/20 05:39:12;;;;;;;;;;;;;;;;;;2115397;28;20018;-47
2022/08/20 05:40:13;;;;;;;;;;;;;;;;;;2115389;28;19923;-46
2022/08/20 05:41:14;;;;;;;;;;;;;;;;;;2115313;28;19927;-47
2022/08/20 05:42:28;;;;;;;;;;;;;;;;;;2115554;28;19934;-47
2022/08/20 05:43:32;;;;;;;;;;;;;;;;;;2115322;28;19924;-47
2022/08/20 05:44:35;;;;;;;;;;;;;;;;;;2115582;28;20371;-45
2022/08/20 05:45:36;;;;;;;;;;;;;;;;;;2115713;28;19942;-44
2022/08/20 05:46:39;;;;;;;;;;;;;;;;;;2115563;28;20042;-46
2022/08/20 05:47:39;;;;;;;;;;;;;;;;;;2115369;28;20056;-47
2022/08/20 05:48:43;;;;;;;;;;;;;;;;;;2115225;28;19946;-49
2022/08/20 05:49:45;;;;;;;;;;;;;;;;;;2115436;28;19924;-48
2022/08/20 05:50:47;;;;;;;;;;;;;;;;;;2115201;28;19930;-46
2022/08/20 05:51:49;;;;;;;;;;;;;;;;;;2115279;28;20352;-46
2022/08/20 05:52:50;;;;;;;;;;;;;;;;;;2115409;28;19979;-48
2022/08/20 05:53:51;;;;;;;;;;;;;;;;;;2115458;28;19927;-45
2022/08/20 05:54:54;;;;;;;;;;;;;;;;;;2115391;28;20027;-45
2022/08/20 05:55:55;;;;;;;;;;;;;;;;;;2115376;28;19981;-45
2022/08/20 05:56:56;;;;;;;;;;;;;;;;;;2115386;28;20007;-45
2022/08/20 05:57:57;;;;;;;;;;;;;;;;;;2115186;28;19924;-45
2022/08/20 05:58:59;;;;;;;;;;;;;;;;;;2115429;28;19928;-47
2022/08/20 06:00:01;;;;;;;;;;;;;;;;;;2115498;28;20011;-46
2022/08/20 06:01:02;;;;;;;;;;;;;;;;;;2115294;28;19924;-45
2022/08/20 06:04:23;;;;;;;;;;;;;;;;;;2115135;28;19969;-45
2022/08/20 06:04:43;;;;;;;;;;;;;;;;;;2115588;28;19923;-45
2022/08/20 06:05:44;;;;;;;;;;;;;;;;;;2115338;28;20288;-46
2022/08/20 06:06:45;;;;;;;;;;;;;;;;;;2115393;28;19924;-46
2022/08/20 06:07:49;;;;;;;;;;;;;;;;;;2115480;28;19951;-47
2022/08/20 06:08:50;;;;;;;;;;;;;;;;;;2115346;28;19943;-47
2022/08/20 06:09:51;;;;;;;;;;;;;;;;;;2115308;28;19924;-47
2022/08/20 06:10:52;;;;;;;;;;;;;;;;;;2115158;28;19931;-49
2022/08/20 06:11:52;;;;;;;;;;;;;;;;;;2107382;28;20014;-48
2022/08/20 06:12:53;;;;;;;;;;;;;;;;;;2107137;28;19924;-47
2022/08/20 06:13:54;;;;;;;;;;;;;;;;;;2106869;28;19967;-46
2022/08/20 06:14:55;;;;;;;;;;;;;;;;;;2106793;28;19947;-46
2022/08/20 06:15:56;;;;;;;;;;;;;;;;;;2106732;28;19924;-46
2022/08/20 06:16:57;;;;;;;;;;;;;;;;;;2106695;28;19924;-46
2022/08/20 06:17:59;;;;;;;;;;;;;;;;;;2106665;28;19924;-48
2022/08/20 06:19:00;;;;;;;;;;;;;;;;;;2106816;28;19934;-48
2022/08/20 06:20:03;;;;;;;;;;;;;;;;;;2106647;28;19924;-49
2022/08/20 06:21:04;;;;;;;;;;;;;;;;;;2106042;28;20023;-47
2022/08/20 06:22:05;;;;;;;;;;;;;;;;;;2106179;28;20425;-47
2022/08/20 06:23:18;;;;;;;;;;;;;;;;;;2106690;28;20356;-49
2022/08/20 06:24:20;;;;;;;;;;;;;;;;;;2106686;28;19985;-48
2022/08/20 06:25:21;;;;;;;;;;;;;;;;;;2106767;28;20003;-47
2022/08/20 06:26:22;;;;;;;;;;;;;;;;;;2106498;28;19931;-48
2022/08/20 06:27:25;;;;;;;;;;;;;;;;;;2106773;28;19924;-48
2022/08/20 06:28:26;;;;;;;;;;;;;;;;;;2106561;28;20015;-47
2022/08/20 06:29:26;;;;;;;;;;;;;;;;;;2106939;28;19924;-49
2022/08/20 06:30:27;;;;;;;;;;;;;;;;;;2106959;28;20285;-48
2022/08/20 06:31:28;;;;;;;;;;;;;;;;;;2110529;28;19924;-47
2022/08/20 06:32:29;;;;;;;;;;;;;;;;;;2115031;28;19973;-48
2022/08/20 06:33:33;;;;;;;;;;;;;;;;;;2106833;28;20377;-45
2022/08/20 06:34:34;;;;;;;;;;;;;;;;;;2106669;28;19971;-46
2022/08/20 06:35:36;;;;;;;;;;;;;;;;;;2110826;28;20226;-48
2022/08/20 06:36:37;;;;;;;;;;;;;;;;;;2115333;28;20357;-47
2022/08/20 06:37:38;;;;;;;;;;;;;;;;;;2115194;28;19928;-48
2022/08/20 06:38:39;;;;;;;;;;;;;;;;;;2115252;28;19949;-48
2022/08/20 06:39:40;;;;;;;;;;;;;;;;;;2115452;28;19932;-45
2022/08/20 06:40:41;;;;;;;;;;;;;;;;;;2115285;28;19924;-45
2022/08/20 06:41:41;;;;;;;;;;;;;;;;;;2115014;28;20383;-46
2022/08/20 06:42:44;;;;;;;;;;;;;;;;;;2115331;28;19973;-48
2022/08/20 06:43:50;;;;;;;;;;;;;;;;;;2115285;28;19978;-47
2022/08/20 06:44:51;;;;;;;;;;;;;;;;;;2115074;28;20471;-47
2022/08/20 06:45:55;;;;;;;;;;;;;;;;;;2115139;28;19964;-49
2022/08/20 06:46:55;;;;;;;;;;;;;;;;;;2114952;28;20053;-47
2022/08/20 06:47:56;;;;;;;;;;;;;;;;;;2115205;28;19928;-51
2022/08/20 06:48:57;;;;;;;;;;;;;;;;;;2115082;28;19931;-48
2022/08/20 06:49:58;;;;;;;;;;;;;;;;;;2115240;28;19951;-47
2022/08/20 06:50:59;;;;;;;;;;;;;;;;;;2115311;28;19923;-47
2022/08/20 06:52:00;;;;;;;;;;;;;;;;;;2115135;28;19927;-49
2022/08/20 06:53:01;;;;;;;;;;;;;;;;;;2115106;28;20441;-47
2022/08/20 06:54:02;;;;;;;;;;;;;;;;;;2115291;28;19930;-46
2022/08/20 06:55:02;;;;;;;;;;;;;;;;;;2115179;28;19955;-45
2022/08/20 06:56:03;;;;;;;;;;;;;;;;;;2114947;28;20361;-48
2022/08/20 06:57:04;;;;;;;;;;;;;;;;;;2114987;28;20453;-45
2022/08/20 06:58:05;;;;;;;;;;;;;;;;;;2115418;28;19954;-45
2022/08/20 06:59:06;;;;;;;;;;;;;;;;;;2114988;28;20048;-45
2022/08/20 07:00:07;;;;;;;;;;;;;;;;;;2115051;28;20018;-47
2022/08/20 07:01:08;;;;;;;;;;;;;;;;;;2114951;28;19928;-46
2022/08/20 07:02:10;;;;;;;;;;;;;;;;;;2115129;28;19974;-45
2022/08/20 07:03:12;;;;;;;;;;;;;;;;;;2114947;28;19924;-45
2022/08/20 07:04:14;;;;;;;;;;;;;;;;;;2115096;28;19930;-46